Sunday, December 16, 2018, 12:50 PM EST
Back to Local

KJHW, Jamestown, Chautauqua County/jamestown Airport

Location: Jamestown, NY, United States Lat: 42.15
Local Time: 12:50 PM EST (17:50 GMT) Lon: -79.267
Time Zone: US/Eastern Elev: 1722 ft

Show me the last for .
Show Decoded

2018-12-16 12:39 METAR KJHW 161739Z AUTO 33008KT 3SM UP BR FEW003 OVC007 02/02 A2992 RMK AO2
                 RAB01E18UPB18 CIG 006V010 P0001 FZRANO =
2018-12-16 12:27 METAR KJHW 161727Z AUTO 34008KT 1 1/4SM UP BR OVC007 03/02 A2993 RMK AO2
                 RAB01E18UPB18 CIG 003V010 P0001 =
2018-12-16 12:15 METAR KJHW 161715Z AUTO 01005KT 2 1/2SM -RA BR OVC007 03/02 A2993 RMK AO2 RAB01
                 CIG 005V009 P0001 =
2018-12-16 12:02 METAR KJHW 161702Z AUTO 05003KT 1 3/4SM -RA BR BKN007 BKN014 OVC036 03/02 A2994
                 RMK AO2 RAB01 P0000 =
2018-12-16 11:56 METAR KJHW 161656Z AUTO 00000KT 4SM BR BKN009 BKN016 OVC036 03/02 A2994 RMK AO2
                 CIG 007V012 SLP157 T00330022 =
2018-12-16 11:45 METAR KJHW 161645Z AUTO 00000KT 10SM FEW009 BKN027 OVC038 03/02 A2995 RMK AO2 =
2018-12-16 11:13 METAR KJHW 161613Z AUTO 07004KT 10SM BKN015 BKN021 OVC050 03/02 A2996 RMK AO2 =
2018-12-16 10:56 METAR KJHW 161556Z AUTO 03005KT 10SM FEW015 BKN049 OVC065 03/02 A2996 RMK AO2
                 RAE23 SLP164 P0000 T00330017 =
2018-12-16 09:56 METAR KJHW 161456Z AUTO 10005KT 9SM -RA OVC050 03/03 A2997 RMK AO2 UPB13E17
                 SLP166 P0000 60002 T00330028 50001 =
2018-12-16 08:56 METAR KJHW 161356Z AUTO 03004KT 10SM -RA BKN040 BKN049 OVC060 03/02 A2997 RMK
                 AO2 SLP167 P0001 T00280017 =
2018-12-16 07:56 METAR KJHW 161256Z AUTO 10005KT 10SM -RA OVC050 03/02 A2997 RMK AO2 SLP165 P0001
                 T00330017 =
2018-12-16 06:56 METAR KJHW 161156Z AUTO 14010KT 10SM -RA OVC055 03/01 A2996 RMK AO2 SLP164 P0001
                 60001 70001 T00280006 10028 20017 58007 =
2018-12-16 05:56 METAR KJHW 161056Z AUTO VRB03KT 10SM -RA OVC060 02/00 A2997 RMK AO2 UPB05E10
                 SLP169 P0000 T00170000 FZRANO =
2018-12-16 04:56 METAR KJHW 160956Z AUTO 09005KT 10SM -RA BKN080 OVC090 02/M02 A2998 RMK AO2
                 RAB56 SLP170 P0000 T00221022 FZRANO =
2018-12-16 03:56 METAR KJHW 160856Z AUTO 11004KT 10SM OVC095 02/M03 A2998 RMK AO2 SLP171
                 T00221033 56013 FZRANO =
2018-12-16 02:56 METAR KJHW 160756Z AUTO 08007KT 10SM OVC100 02/M04 A2999 RMK AO2 SLP172
                 T00221039 FZRANO =
2018-12-16 01:56 METAR KJHW 160656Z AUTO 04008KT 10SM OVC110 02/M03 A3000 RMK AO2 SLP177
                 T00171033 FZRANO =
2018-12-16 00:56 METAR KJHW 160556Z AUTO 06009KT 10SM SCT095 BKN120 02/M03 A3002 RMK AO2 SLP184
                 T00221033 10028 20017 58020 FZRANO =
2018-12-15 23:56 METAR KJHW 160456Z AUTO 08009KT 10SM CLR 02/M03 A3005 RMK AO2 SLP194 T00221028
                 400440017 FZRANO =
2018-12-15 22:56 METAR KJHW 160356Z AUTO 05008KT 10SM SCT110 02/M03 A3007 RMK AO2 SLP201
                 T00221028 FZRANO =
2018-12-15 21:56 METAR KJHW 160256Z AUTO 07008KT 10SM BKN110 02/M02 A3008 RMK AO2 SLP205
                 T00221022 58004 FZRANO =
2018-12-15 20:56 METAR KJHW 160156Z AUTO 08005KT 10SM CLR 02/M02 A3011 RMK AO2 SLP214 T00221022
                 FZRANO =
2018-12-15 18:56 METAR KJHW 152356Z AUTO 05009KT 10SM CLR 03/M02 A3010 RMK AO2 SLP211 T00281017
                 10044 20028 50000 =
2018-12-15 17:56 METAR KJHW 152256Z AUTO 04009KT 10SM CLR 03/M02 A3010 RMK AO2 SLP212 T00281017 =
2018-12-15 16:56 METAR KJHW 152156Z AUTO 03007KT 10SM CLR 04/M02 A3010 RMK AO2 SLP210 T00391022 =
2018-12-15 15:56 METAR KJHW 152056Z AUTO 03005KT 10SM FEW120 04/M03 A3010 RMK AO2 SLP209
                 T00441028 55001 =
2018-12-15 14:56 METAR KJHW 151956Z AUTO 06007KT 10SM CLR 04/M02 A3007 RMK AO2 SLP199 T00441017 =
2018-12-15 13:56 METAR KJHW 151856Z AUTO 06008KT 10SM CLR 04/M02 A3007 RMK AO2 SLP198 T00441017 =
2018-12-15 12:56 METAR KJHW 151756Z AUTO 10007KT 10SM CLR 04/M01 A3010 RMK AO2 SLP210 T00441006
                 10044 20022 58021 =

Support USWX by starting your Amazon purchase here.